Time;durP1;ratioP1;P1;durP2;ratioP2;P2;SDS_P1;SDS_P2;PMS_P1;PMS_P2;Temp;Humidity;BMP_temperature;BMP_pressure;BME280_temperature;BME280_humidity;BME280_pressure;Samples;Min_cycle;Max_cycle;Signal;HPM_P1;HPM_P2
2023/08/06 00:02:13;;;;;;;4.70;3.97;;;20.80;70.80;;;;;;5017273;28;20037;-53
2023/08/06 00:04:38;;;;;;;4.30;3.65;;;20.80;70.80;;;;;;5018655;28;20103;-51
2023/08/06 00:07:04;;;;;;;4.53;3.88;;;20.80;70.80;;;;;;5019122;28;20053;-50
2023/08/06 00:09:30;;;;;;;4.30;3.90;;;20.80;70.80;;;;;;5025532;28;20035;-52
2023/08/06 00:11:55;;;;;;;5.40;3.55;;;20.80;70.90;;;;;;5022239;28;20487;-50
2023/08/06 00:14:21;;;;;;;4.45;3.90;;;20.80;71.40;;;;;;5019930;28;20057;-51
2023/08/06 00:16:46;;;;;;;4.00;3.60;;;20.80;70.90;;;;;;5021599;28;20036;-50
2023/08/06 00:19:12;;;;;;;5.45;3.72;;;20.80;70.80;;;;;;5020696;28;20608;-54
2023/08/06 00:21:38;;;;;;;5.32;4.20;;;20.80;71.00;;;;;;5023795;28;20059;-54
2023/08/06 00:24:03;;;;;;;5.03;4.07;;;20.80;71.00;;;;;;5036998;28;20033;-51
2023/08/06 00:26:29;;;;;;;5.05;3.58;;;20.80;70.80;;;;;;5035408;28;20033;-53
2023/08/06 00:28:54;;;;;;;4.22;3.40;;;20.80;70.90;;;;;;5038690;28;20079;-51
2023/08/06 00:31:20;;;;;;;3.25;2.95;;;20.80;70.90;;;;;;5036803;28;20036;-51
2023/08/06 00:33:45;;;;;;;4.45;3.60;;;20.80;70.90;;;;;;5027656;28;20029;-51
2023/08/06 00:36:11;;;;;;;3.70;3.30;;;20.80;70.80;;;;;;5020010;28;20060;-53
2023/08/06 00:38:36;;;;;;;3.85;3.33;;;20.80;70.80;;;;;;5020536;28;20052;-51
2023/08/06 00:41:02;;;;;;;3.70;3.30;;;20.80;70.80;;;;;;5023509;28;20095;-52
2023/08/06 00:43:27;;;;;;;3.78;2.85;;;20.80;70.80;;;;;;5021055;28;20022;-50
2023/08/06 00:45:53;;;;;;;3.45;3.10;;;20.80;70.80;;;;;;5007836;28;20045;-50
2023/08/06 00:48:20;;;;;;;3.97;3.58;;;20.80;70.80;;;;;;5023242;28;20091;-51
2023/08/06 00:50:46;;;;;;;3.40;3.10;;;20.80;70.80;;;;;;5035364;28;20028;-53
2023/08/06 00:53:12;;;;;;;4.85;3.40;;;20.80;70.90;;;;;;5037213;28;20033;-51
2023/08/06 00:55:38;;;;;;;3.47;3.10;;;20.80;71.50;;;;;;5038181;28;20036;-50
2023/08/06 00:58:04;;;;;;;3.95;3.55;;;20.80;70.90;;;;;;5038824;28;20414;-52
2023/08/06 01:00:30;;;;;;;4.75;3.55;;;20.80;70.90;;;;;;5036648;28;20518;-50
2023/08/06 01:02:55;;;;;;;5.03;3.00;;;20.80;70.90;;;;;;5051644;22;20056;-67
2023/08/06 01:05:22;;;;;;;4.57;3.13;;;20.80;70.90;;;;;;4970731;28;20466;-68
2023/08/06 01:08:08;;;;;;;4.35;3.50;;;20.80;71.00;;;;;;4974563;28;20150;-69
2023/08/06 01:10:34;;;;;;;4.22;3.70;;;20.80;70.90;;;;;;4959730;28;20129;-68
2023/08/06 01:13:22;;;;;;;4.65;3.50;;;20.80;70.80;;;;;;4972779;28;20041;-68
2023/08/06 01:15:51;;;;;;;3.70;2.95;;;20.80;70.80;;;;;;4981654;28;20114;-68
2023/08/06 01:18:16;;;;;;;3.92;3.40;;;20.80;70.80;;;;;;4966662;28;20045;-68
2023/08/06 01:20:42;;;;;;;3.63;2.53;;;20.80;70.90;;;;;;4978937;28;20026;-68
2023/08/06 01:23:07;;;;;;;3.63;2.75;;;20.80;70.80;;;;;;4977465;28;20061;-68
2023/08/06 01:25:51;;;;;;;4.47;3.10;;;20.80;70.80;;;;;;4985309;28;20042;-68
2023/08/06 01:28:27;;;;;;;3.17;2.88;;;20.80;70.70;;;;;;4980063;28;20379;-68
2023/08/06 01:30:59;;;;;;;3.22;2.90;;;20.70;70.70;;;;;;4981114;28;20566;-68
2023/08/06 01:33:27;;;;;;;4.13;3.22;;;20.70;70.80;;;;;;4976206;28;20456;-68
2023/08/06 01:35:55;;;;;;;4.07;2.90;;;20.70;70.70;;;;;;4977933;28;20459;-68
2023/08/06 01:38:20;;;;;;;3.17;2.88;;;20.70;70.80;;;;;;4980235;28;20084;-66
2023/08/06 01:40:46;;;;;;;2.90;2.55;;;20.70;70.60;;;;;;4983137;28;20039;-66
2023/08/06 01:43:11;;;;;;;4.07;3.30;;;20.80;70.80;;;;;;4985381;28;20610;-66
2023/08/06 01:45:40;;;;;;;3.67;2.88;;;20.70;70.80;;;;;;4980496;28;20042;-67
2023/08/06 01:48:05;;;;;;;3.33;2.78;;;20.70;70.70;;;;;;4984650;28;20046;-67
2023/08/06 01:50:31;;;;;;;3.25;2.72;;;20.70;70.70;;;;;;4978831;28;20108;-66
2023/08/06 01:52:56;;;;;;;3.20;2.90;;;20.70;70.60;;;;;;4982501;28;20022;-67
2023/08/06 01:55:22;;;;;;;4.18;2.72;;;20.70;70.60;;;;;;4979092;28;20523;-67
2023/08/06 01:57:48;;;;;;;3.25;2.95;;;20.70;70.60;;;;;;4977176;28;20127;-66
2023/08/06 02:00:13;;;;;;;3.00;2.70;;;20.70;70.50;;;;;;4981279;28;20030;-67
2023/08/06 02:02:40;;;;;;;2.72;2.53;;;20.70;70.60;;;;;;4981358;28;20066;-66
2023/08/06 02:05:06;;;;;;;2.97;2.65;;;20.70;70.60;;;;;;4979887;28;20060;-67
2023/08/06 02:07:32;;;;;;;4.78;2.95;;;20.80;70.70;;;;;;4978917;28;20038;-66
2023/08/06 02:09:57;;;;;;;3.95;2.78;;;20.70;70.60;;;;;;4981153;28;20036;-67
2023/08/06 02:12:23;;;;;;;4.35;2.70;;;20.70;70.50;;;;;;4981477;28;20046;-66
2023/08/06 02:14:48;;;;;;;3.05;2.75;;;20.70;70.60;;;;;;4983889;28;20126;-67
2023/08/06 02:17:14;;;;;;;2.92;2.60;;;20.70;70.50;;;;;;4982618;28;20117;-68
2023/08/06 02:19:39;;;;;;;3.00;2.70;;;20.70;70.60;;;;;;4978052;28;20050;-66
2023/08/06 02:22:05;;;;;;;4.25;3.17;;;20.70;70.50;;;;;;4982477;28;20034;-67
2023/08/06 02:24:30;;;;;;;3.20;2.90;;;20.70;70.60;;;;;;4979203;28;20034;-66
2023/08/06 02:26:56;;;;;;;3.00;2.67;;;20.70;70.50;;;;;;4974480;28;20093;-66
2023/08/06 02:29:21;;;;;;;2.88;2.60;;;20.70;70.50;;;;;;4980791;28;20037;-66
2023/08/06 02:31:47;;;;;;;3.88;3.33;;;20.70;70.60;;;;;;4977514;28;20402;-67
2023/08/06 02:34:12;;;;;;;2.92;2.70;;;20.70;70.60;;;;;;4981641;28;20034;-67
2023/08/06 02:36:38;;;;;;;3.70;3.05;;;20.70;70.60;;;;;;4978712;28;20122;-66
2023/08/06 02:39:04;;;;;;;2.60;2.40;;;20.70;70.60;;;;;;4982631;28;20042;-67
2023/08/06 02:41:29;;;;;;;3.88;2.90;;;20.70;70.60;;;;;;4981576;28;20042;-66
2023/08/06 02:43:55;;;;;;;2.92;2.72;;;20.70;70.60;;;;;;4983676;28;20038;-67
2023/08/06 02:46:20;;;;;;;3.17;2.75;;;20.70;70.70;;;;;;4984008;28;20381;-66
2023/08/06 02:48:46;;;;;;;3.25;2.88;;;20.70;70.70;;;;;;4974956;28;20638;-67
2023/08/06 02:51:11;;;;;;;3.45;2.85;;;20.70;70.60;;;;;;4980822;28;20448;-67
2023/08/06 02:53:37;;;;;;;2.92;2.63;;;20.70;70.60;;;;;;4980098;28;20033;-66
2023/08/06 02:56:02;;;;;;;3.08;2.60;;;20.70;70.60;;;;;;4978926;28;20031;-67
2023/08/06 02:58:28;;;;;;;2.42;2.22;;;20.60;70.70;;;;;;4976064;28;20038;-68
2023/08/06 03:01:07;;;;;;;2.72;2.50;;;20.70;70.60;;;;;;4974151;28;20101;-67
2023/08/06 03:03:33;;;;;;;3.40;2.60;;;20.70;70.60;;;;;;4974769;28;20636;-66
2023/08/06 03:05:59;;;;;;;2.70;2.50;;;20.70;70.60;;;;;;4979141;28;20034;-66
2023/08/06 03:08:25;;;;;;;2.75;2.55;;;20.70;70.60;;;;;;4980210;28;20409;-66
2023/08/06 03:10:51;;;;;;;5.78;3.05;;;20.70;70.60;;;;;;4980655;28;20089;-66
2023/08/06 03:13:18;;;;;;;2.78;2.40;;;20.70;70.70;;;;;;4984641;28;20030;-65
2023/08/06 03:15:51;;;;;;;2.78;2.45;;;20.70;70.50;;;;;;4984721;28;20061;-67
2023/08/06 03:18:17;;;;;;;3.13;2.83;;;20.70;70.70;;;;;;4976623;28;20034;-66
2023/08/06 03:20:42;;;;;;;2.63;2.42;;;20.60;70.60;;;;;;4978523;28;20041;-67
2023/08/06 03:23:08;;;;;;;2.55;2.35;;;20.70;70.60;;;;;;4979479;28;20053;-66
2023/08/06 03:25:36;;;;;;;2.63;2.20;;;20.60;70.60;;;;;;4975597;28;20077;-67
2023/08/06 03:28:02;;;;;;;2.50;2.30;;;20.70;70.40;;;;;;4977779;28;20122;-67
2023/08/06 03:30:27;;;;;;;3.45;2.70;;;20.60;70.50;;;;;;4978408;28;20117;-67
2023/08/06 03:32:53;;;;;;;2.65;2.35;;;20.60;70.50;;;;;;4977326;28;20035;-68
2023/08/06 03:35:18;;;;;;;4.00;2.45;;;20.60;70.50;;;;;;4982579;28;20069;-66
2023/08/06 03:37:44;;;;;;;2.85;2.30;;;20.60;70.50;;;;;;4980288;28;20034;-68
2023/08/06 03:40:10;;;;;;;2.42;1.88;;;20.60;70.60;;;;;;4979135;28;20046;-67
2023/08/06 03:42:35;;;;;;;3.65;2.58;;;20.70;70.50;;;;;;4980360;28;20084;-66
2023/08/06 03:45:01;;;;;;;2.70;2.50;;;20.60;70.60;;;;;;4981581;28;20401;-67
2023/08/06 03:47:27;;;;;;;2.42;2.22;;;20.60;70.50;;;;;;4980002;28;20464;-67
2023/08/06 03:49:52;;;;;;;3.28;2.58;;;20.60;70.60;;;;;;4979712;28;20035;-67
2023/08/06 03:52:18;;;;;;;2.55;2.35;;;20.60;70.50;;;;;;4981400;28;20129;-67
2023/08/06 03:54:43;;;;;;;2.55;2.28;;;20.60;70.50;;;;;;4979354;28;20027;-66
2023/08/06 03:57:10;;;;;;;2.42;2.22;;;20.60;70.50;;;;;;4993186;28;20035;-66
2023/08/06 03:59:36;;;;;;;3.85;2.80;;;20.60;70.50;;;;;;4976575;28;20027;-67
2023/08/06 04:02:01;;;;;;;2.40;2.10;;;20.60;70.50;;;;;;4980928;28;20107;-66
2023/08/06 04:04:27;;;;;;;3.47;2.28;;;20.60;70.50;;;;;;4978922;28;20046;-66
2023/08/06 04:06:52;;;;;;;2.20;2.03;;;20.60;70.50;;;;;;4981959;28;20137;-67
2023/08/06 04:09:18;;;;;;;2.88;2.40;;;20.60;70.50;;;;;;4981903;28;20621;-67
2023/08/06 04:11:43;;;;;;;2.60;2.40;;;20.60;70.60;;;;;;4982268;28;20039;-67
2023/08/06 04:14:09;;;;;;;2.20;2.00;;;20.60;70.60;;;;;;4982966;28;20556;-66
2023/08/06 04:16:34;;;;;;;3.28;2.30;;;20.60;70.50;;;;;;4977758;28;20023;-66
2023/08/06 04:19:00;;;;;;;2.33;2.13;;;20.60;70.40;;;;;;4981555;28;20503;-67
2023/08/06 04:21:25;;;;;;;2.13;1.90;;;20.60;70.50;;;;;;4981724;28;20121;-68
2023/08/06 04:23:51;;;;;;;2.35;1.80;;;20.60;70.70;;;;;;4978168;28;20031;-67
2023/08/06 04:26:16;;;;;;;1.98;1.77;;;20.60;70.50;;;;;;4975571;28;20030;-67
2023/08/06 04:28:42;;;;;;;3.17;1.90;;;20.60;70.50;;;;;;4979910;28;20505;-67
2023/08/06 04:31:07;;;;;;;2.33;2.13;;;20.60;70.50;;;;;;4977851;28;20552;-67
2023/08/06 04:33:33;;;;;;;2.38;2.17;;;20.60;70.60;;;;;;4979482;28;20027;-68
2023/08/06 04:35:59;;;;;;;2.00;1.70;;;20.60;70.70;;;;;;4979419;28;20077;-67
2023/08/06 04:38:25;;;;;;;2.60;1.90;;;20.60;70.50;;;;;;4981949;28;20033;-67
2023/08/06 04:40:51;;;;;;;1.95;1.75;;;20.60;70.60;;;;;;4980312;28;20350;-68
2023/08/06 04:43:17;;;;;;;1.98;1.77;;;20.60;70.50;;;;;;4982550;28;20041;-68
2023/08/06 04:45:49;;;;;;;2.60;1.83;;;20.60;70.50;;;;;;4976271;28;20026;-67
2023/08/06 04:48:15;;;;;;;2.08;1.70;;;20.60;70.50;;;;;;4968844;28;20041;-67
2023/08/06 04:50:45;;;;;;;2.60;1.85;;;20.60;70.60;;;;;;4979499;28;20034;-67
2023/08/06 04:53:11;;;;;;;2.47;2.28;;;20.60;70.70;;;;;;4983239;28;20037;-67
2023/08/06 04:55:36;;;;;;;2.05;1.55;;;20.60;70.60;;;;;;4973837;28;20034;-68
2023/08/06 04:58:02;;;;;;;2.00;1.90;;;20.60;70.70;;;;;;4976887;28;20093;-67
2023/08/06 05:00:27;;;;;;;2.03;1.80;;;20.60;70.60;;;;;;4978606;28;20057;-67
2023/08/06 05:02:53;;;;;;;2.95;1.67;;;20.60;70.60;;;;;;4977661;28;20027;-67
2023/08/06 05:05:18;;;;;;;2.35;1.70;;;20.60;70.60;;;;;;4982787;28;20100;-68
2023/08/06 05:07:48;;;;;;;2.40;1.75;;;20.50;70.50;;;;;;4981204;28;20220;-67
2023/08/06 05:10:13;;;;;;;2.03;1.80;;;20.50;70.50;;;;;;4981868;28;20108;-68
2023/08/06 05:12:39;;;;;;;1.88;1.58;;;20.50;70.60;;;;;;4981916;28;20113;-67
2023/08/06 05:15:05;;;;;;;1.50;1.40;;;20.60;70.60;;;;;;4983009;28;20226;-67
2023/08/06 05:17:30;;;;;;;2.00;1.80;;;20.50;70.50;;;;;;4982543;28;20026;-67
2023/08/06 05:19:56;;;;;;;1.83;1.70;;;20.50;71.20;;;;;;4983437;28;20393;-67
2023/08/06 05:22:21;;;;;;;1.70;1.50;;;20.50;70.50;;;;;;4979488;28;20037;-68
2023/08/06 05:24:47;;;;;;;1.70;1.52;;;20.50;70.60;;;;;;4977273;28;20403;-67
2023/08/06 05:27:12;;;;;;;1.90;1.70;;;20.50;70.60;;;;;;4981112;28;20096;-67
2023/08/06 05:29:38;;;;;;;1.83;1.73;;;20.50;70.50;;;;;;4981774;28;20037;-67
2023/08/06 05:32:04;;;;;;;2.47;2.13;;;20.50;70.60;;;;;;4984163;28;20045;-67
2023/08/06 05:34:29;;;;;;;1.90;1.35;;;20.50;70.60;;;;;;4985177;28;20455;-66
2023/08/06 05:36:55;;;;;;;1.98;1.52;;;20.60;70.70;;;;;;4983874;28;20034;-67
2023/08/06 05:39:20;;;;;;;2.03;1.80;;;20.50;70.60;;;;;;4984453;28;20045;-68
2023/08/06 05:41:46;;;;;;;3.30;1.77;;;20.50;70.60;;;;;;4982919;28;20406;-67
2023/08/06 05:44:11;;;;;;;1.50;1.40;;;20.50;70.50;;;;;;4982977;28;20061;-67
2023/08/06 05:46:37;;;;;;;2.20;2.00;;;20.50;70.50;;;;;;4994322;28;20045;-67
2023/08/06 05:49:03;;;;;;;2.63;1.60;;;20.50;70.50;;;;;;4985840;28;20102;-67
2023/08/06 05:51:29;;;;;;;1.45;1.35;;;20.50;70.50;;;;;;4977285;28;20034;-67
2023/08/06 05:53:54;;;;;;;1.30;1.13;;;20.50;70.50;;;;;;4974460;28;20035;-68
2023/08/06 05:56:20;;;;;;;2.63;1.67;;;20.50;70.70;;;;;;4980368;28;20110;-68
2023/08/06 05:58:47;;;;;;;1.45;1.30;;;20.50;70.60;;;;;;4979580;28;20393;-68
2023/08/06 06:01:13;;;;;;;1.48;1.38;;;20.50;70.50;;;;;;4983067;28;20450;-67
2023/08/06 06:03:38;;;;;;;1.52;1.40;;;20.50;70.50;;;;;;4982850;28;20057;-67
2023/08/06 06:06:04;;;;;;;1.73;1.52;;;20.50;70.50;;;;;;4983239;28;20022;-67
2023/08/06 06:08:30;;;;;;;1.48;1.20;;;20.50;70.50;;;;;;4983010;28;20165;-67
2023/08/06 06:10:55;;;;;;;1.58;1.40;;;20.50;70.60;;;;;;4980241;28;20065;-68
2023/08/06 06:13:21;;;;;;;1.42;1.33;;;20.50;70.50;;;;;;4983624;28;20026;-67
2023/08/06 06:15:47;;;;;;;1.30;1.20;;;20.50;70.50;;;;;;4982367;28;20087;-66
2023/08/06 06:18:13;;;;;;;1.48;1.30;;;20.50;70.50;;;;;;4982461;28;20135;-67
2023/08/06 06:20:38;;;;;;;1.52;1.40;;;20.50;70.50;;;;;;4980642;28;20035;-67
2023/08/06 06:23:04;;;;;;;1.80;1.45;;;20.50;70.50;;;;;;4980433;28;20037;-67
2023/08/06 06:25:30;;;;;;;1.23;1.13;;;20.50;70.50;;;;;;4983597;28;20041;-67
2023/08/06 06:27:55;;;;;;;2.65;1.27;;;20.50;70.50;;;;;;4986080;28;20054;-68
2023/08/06 06:30:21;;;;;;;1.60;1.50;;;20.50;70.60;;;;;;4990153;28;20038;-68
2023/08/06 06:32:47;;;;;;;1.00;1.00;;;20.50;70.70;;;;;;4984477;28;20076;-66
2023/08/06 06:35:12;;;;;;;1.42;1.05;;;20.50;70.50;;;;;;4980806;28;20482;-67
2023/08/06 06:37:38;;;;;;;1.65;1.30;;;20.50;70.60;;;;;;4982258;28;20044;-67
2023/08/06 06:40:04;;;;;;;2.20;1.30;;;20.50;70.60;;;;;;4979342;28;20062;-67
2023/08/06 06:42:29;;;;;;;1.50;1.10;;;20.50;70.50;;;;;;4981352;28;20035;-66
2023/08/06 06:44:55;;;;;;;1.20;1.10;;;20.50;70.50;;;;;;4978450;28;20965;-67
2023/08/06 06:47:20;;;;;;;1.40;1.30;;;20.50;70.50;;;;;;4976598;28;20101;-68
2023/08/06 06:49:46;;;;;;;1.67;1.30;;;20.50;70.70;;;;;;4978546;28;20031;-67
2023/08/06 06:52:12;;;;;;;1.42;1.30;;;20.50;70.50;;;;;;4978519;28;20494;-66
2023/08/06 06:54:37;;;;;;;2.05;1.40;;;20.50;70.70;;;;;;4979547;28;20386;-65
2023/08/06 06:57:03;;;;;;;1.08;0.93;;;20.50;70.70;;;;;;4979670;28;20048;-68
2023/08/06 06:59:29;;;;;;;4.70;1.33;;;20.50;71.40;;;;;;4980703;28;20030;-65
2023/08/06 07:01:54;;;;;;;1.67;1.30;;;20.50;70.80;;;;;;4991519;28;20389;-66
2023/08/06 07:04:20;;;;;;;3.38;1.40;;;20.50;70.90;;;;;;4984467;28;20565;-69
2023/08/06 07:06:45;;;;;;;2.55;1.75;;;20.50;71.10;;;;;;4979697;28;20544;-66
2023/08/06 07:09:11;;;;;;;11.50;5.85;;;20.50;71.00;;;;;;4978850;28;20413;-68
2023/08/06 07:11:36;;;;;;;22.63;14.52;;;20.50;71.30;;;;;;4980295;28;20105;-68
2023/08/06 07:14:02;;;;;;;25.30;15.80;;;20.60;72.20;;;;;;4980303;28;20106;-67
2023/08/06 07:16:28;;;;;;;23.65;14.63;;;20.50;72.50;;;;;;4976733;28;20065;-66
2023/08/06 07:18:54;;;;;;;20.92;12.68;;;20.60;72.40;;;;;;4965975;28;20413;-68
2023/08/06 07:21:20;;;;;;;21.92;14.48;;;20.60;72.00;;;;;;4979174;28;20486;-68
2023/08/06 07:23:46;;;;;;;23.88;13.90;;;20.70;72.20;;;;;;4976156;28;20579;-68
2023/08/06 07:26:11;;;;;;;20.98;13.43;;;20.70;72.00;;;;;;4982032;28;20134;-66
2023/08/06 07:28:37;;;;;;;22.42;11.63;;;20.70;72.10;;;;;;4985161;28;20046;-69
2023/08/06 07:31:03;;;;;;;17.80;11.32;;;20.70;72.10;;;;;;4985696;28;20031;-71
2023/08/06 07:33:29;;;;;;;17.20;10.60;;;20.70;72.10;;;;;;4989258;28;20073;-71
2023/08/06 07:35:54;;;;;;;21.83;10.60;;;20.70;72.10;;;;;;4981984;28;20027;-70
2023/08/06 07:38:21;;;;;;;13.02;9.40;;;20.70;72.00;;;;;;4985894;28;20143;-70
2023/08/06 07:40:46;;;;;;;15.85;8.50;;;20.70;72.00;;;;;;4985027;28;20100;-70
2023/08/06 07:43:12;;;;;;;13.10;7.60;;;20.80;71.80;;;;;;4975592;28;20498;-68
2023/08/06 07:45:38;;;;;;;13.70;9.15;;;20.70;71.70;;;;;;4979356;28;20023;-70
2023/08/06 07:48:04;;;;;;;11.05;8.10;;;20.70;71.80;;;;;;4976714;28;20038;-69
2023/08/06 07:50:30;;;;;;;12.55;7.45;;;20.70;71.60;;;;;;4983737;28;20038;-70
2023/08/06 07:52:55;;;;;;;10.38;6.20;;;20.70;71.60;;;;;;4979984;28;20253;-69
2023/08/06 07:55:21;;;;;;;9.02;5.88;;;20.70;71.60;;;;;;4982359;28;20035;-69
2023/08/06 07:57:46;;;;;;;7.55;5.72;;;20.70;71.50;;;;;;4983809;28;20040;-71
2023/08/06 08:00:12;;;;;;;11.05;5.63;;;20.70;71.50;;;;;;4986054;28;20036;-66
2023/08/06 08:02:37;;;;;;;7.57;5.55;;;20.70;71.50;;;;;;4981201;28;20516;-68
2023/08/06 08:05:03;;;;;;;7.03;4.97;;;20.70;71.50;;;;;;4980928;28;20043;-68
2023/08/06 08:07:30;;;;;;;7.22;5.70;;;20.70;71.40;;;;;;4982123;28;20038;-67
2023/08/06 08:09:56;;;;;;;5.93;4.82;;;20.70;71.60;;;;;;4991170;28;20045;-67
2023/08/06 08:12:22;;;;;;;8.02;4.80;;;20.70;71.70;;;;;;4973252;28;20030;-67
2023/08/06 08:14:48;;;;;;;6.15;4.55;;;20.70;71.50;;;;;;4975413;28;20034;-69
2023/08/06 08:17:13;;;;;;;7.10;3.90;;;20.70;71.50;;;;;;4976044;28;20101;-68
2023/08/06 08:19:40;;;;;;;6.93;3.95;;;20.70;71.50;;;;;;4980747;28;20026;-68
2023/08/06 08:22:06;;;;;;;11.13;5.47;;;20.70;71.50;;;;;;4977274;28;20046;-67
2023/08/06 08:24:31;;;;;;;6.05;4.10;;;20.80;71.30;;;;;;4981484;28;20465;-67
2023/08/06 08:26:57;;;;;;;5.93;3.42;;;20.70;72.10;;;;;;4980696;28;20573;-67
2023/08/06 08:29:23;;;;;;;3.97;2.47;;;20.70;73.10;;;;;;4980894;28;20038;-67
2023/08/06 08:31:50;;;;;;;3.45;2.53;;;20.60;73.20;;;;;;4979945;28;20034;-68
2023/08/06 08:34:16;;;;;;;6.88;3.90;;;20.60;72.90;;;;;;4977652;28;20031;-68
2023/08/06 08:36:42;;;;;;;17.17;7.85;;;20.60;72.90;;;;;;4978485;28;20459;-68
2023/08/06 08:39:08;;;;;;;18.05;8.90;;;20.60;73.20;;;;;;4976352;28;20047;-68
2023/08/06 08:41:35;;;;;;;16.00;7.97;;;20.60;73.10;;;;;;4973508;28;20235;-69
2023/08/06 08:44:00;;;;;;;16.50;7.10;;;20.70;72.70;;;;;;4974102;28;20031;-67
2023/08/06 08:46:29;;;;;;;16.88;7.20;;;20.70;73.00;;;;;;4975949;28;20041;-65
2023/08/06 08:48:55;;;;;;;18.42;7.38;;;20.70;73.00;;;;;;4978463;28;20084;-63
2023/08/06 08:51:22;;;;;;;13.02;7.38;;;20.70;72.70;;;;;;4983522;28;20029;-67
2023/08/06 08:53:49;;;;;;;13.50;6.38;;;20.80;73.10;;;;;;4952757;28;20613;-66
2023/08/06 08:56:15;;;;;;;11.07;6.30;;;20.80;72.90;;;;;;4981981;28;20057;-68
2023/08/06 08:58:41;;;;;;;14.10;5.68;;;20.80;72.80;;;;;;4979952;28;20092;-69
2023/08/06 09:01:08;;;;;;;11.73;5.90;;;20.80;72.80;;;;;;4977617;28;20038;-70
2023/08/06 09:03:36;;;;;;;9.23;5.18;;;20.80;72.70;;;;;;4981267;28;20067;-70
2023/08/06 09:06:03;;;;;;;11.10;4.97;;;20.80;72.80;;;;;;4984946;28;20505;-70
2023/08/06 09:08:36;;;;;;;7.63;5.10;;;20.80;72.90;;;;;;4968441;28;20031;-68
2023/08/06 09:11:04;;;;;;;9.32;4.65;;;20.80;72.80;;;;;;4974277;28;20069;-69
2023/08/06 09:13:29;;;;;;;6.90;4.07;;;20.80;72.70;;;;;;4975923;28;20034;-70
2023/08/06 09:15:55;;;;;;;9.02;5.50;;;20.80;73.20;;;;;;4978455;28;20031;-69
2023/08/06 09:18:30;;;;;;;8.20;3.95;;;20.80;73.00;;;;;;4981954;28;20022;-69
2023/08/06 09:20:57;;;;;;;9.27;4.18;;;20.80;73.00;;;;;;4969315;28;20023;-69
2023/08/06 09:23:33;;;;;;;9.77;3.60;;;20.80;72.90;;;;;;4977631;28;20034;-70
2023/08/06 09:25:59;;;;;;;6.63;3.92;;;20.80;73.10;;;;;;4976067;28;20041;-70
2023/08/06 09:28:38;;;;;;;9.68;3.90;;;20.80;72.70;;;;;;4977421;28;20035;-69
2023/08/06 09:31:03;;;;;;;9.27;3.33;;;20.80;73.00;;;;;;4976577;28;20383;-69
2023/08/06 09:33:29;;;;;;;6.80;3.60;;;20.90;73.10;;;;;;4981597;28;20152;-69
2023/08/06 09:35:55;;;;;;;7.72;3.08;;;20.80;73.00;;;;;;4978466;28;20633;-70
2023/08/06 09:38:20;;;;;;;5.03;2.72;;;20.80;72.90;;;;;;4974648;28;20126;-69
2023/08/06 09:40:47;;;;;;;5.20;2.53;;;20.90;72.60;;;;;;4978202;28;20032;-70
2023/08/06 09:43:13;;;;;;;5.45;2.75;;;20.90;72.30;;;;;;4977725;28;20049;-70
2023/08/06 09:45:39;;;;;;;6.18;2.33;;;20.90;72.50;;;;;;4999200;28;20033;-69
2023/08/06 09:48:09;;;;;;;5.13;2.78;;;20.90;72.50;;;;;;4988302;28;20042;-70
2023/08/06 09:50:39;;;;;;;6.22;2.60;;;20.90;72.80;;;;;;4980549;28;20027;-70
2023/08/06 09:53:06;;;;;;;3.28;2.45;;;20.90;72.70;;;;;;4981886;28;20310;-69
2023/08/06 09:55:32;;;;;;;7.35;2.55;;;20.90;72.60;;;;;;4984377;28;20548;-70
2023/08/06 09:57:59;;;;;;;6.07;2.70;;;20.90;73.20;;;;;;4981691;28;20243;-70
2023/08/06 10:00:25;;;;;;;4.32;2.63;;;20.90;72.60;;;;;;4985085;28;20406;-71
2023/08/06 10:02:54;;;;;;;4.95;3.00;;;20.90;72.60;;;;;;4989433;28;20033;-69
2023/08/06 10:05:20;;;;;;;3.40;2.33;;;20.90;72.60;;;;;;4980427;28;20041;-69
2023/08/06 10:07:48;;;;;;;2.83;1.90;;;20.90;72.60;;;;;;4988510;28;20045;-70
2023/08/06 10:10:14;;;;;;;3.72;2.28;;;20.90;71.50;;;;;;4982512;28;20045;-68
2023/08/06 10:12:46;;;;;;;4.07;2.75;;;20.90;72.60;;;;;;4981861;28;20394;-71
2023/08/06 10:15:15;;;;;;;7.07;2.60;;;20.90;72.60;;;;;;4984151;28;20037;-70
2023/08/06 10:17:44;;;;;;;2.08;1.85;;;20.90;72.80;;;;;;4981816;28;20034;-69
2023/08/06 10:20:10;;;;;;;4.05;2.33;;;20.90;72.70;;;;;;4980740;28;20034;-68
2023/08/06 10:22:35;;;;;;;2.05;1.73;;;20.90;72.40;;;;;;4981182;28;20034;-69
2023/08/06 10:25:04;;;;;;;4.35;2.08;;;20.90;72.50;;;;;;4982880;28;20034;-70
2023/08/06 10:27:34;;;;;;;2.72;2.05;;;20.90;72.10;;;;;;4977986;28;20409;-70
2023/08/06 10:30:22;;;;;;;4.72;2.25;;;20.80;72.00;;;;;;4983452;28;20042;-69
2023/08/06 10:32:49;;;;;;;5.38;2.20;;;20.80;72.00;;;;;;4983029;28;20039;-69
2023/08/06 10:35:31;;;;;;;4.57;2.15;;;20.80;71.80;;;;;;4977681;28;20042;-70
2023/08/06 10:38:14;;;;;;;4.60;2.30;;;20.80;71.80;;;;;;4977858;28;20026;-69
2023/08/06 10:40:41;;;;;;;2.58;2.20;;;20.80;71.80;;;;;;4979040;28;20126;-68
2023/08/06 10:43:10;;;;;;;3.20;2.15;;;20.80;71.70;;;;;;4971769;28;20259;-69
2023/08/06 10:45:37;;;;;;;2.50;2.30;;;20.80;71.70;;;;;;4982157;28;20094;-70
2023/08/06 10:48:04;;;;;;;3.20;2.60;;;20.70;71.70;;;;;;4979822;28;20030;-71
2023/08/06 10:50:31;;;;;;;3.67;2.30;;;20.80;71.60;;;;;;4979385;28;20023;-70
2023/08/06 10:52:57;;;;;;;4.00;2.75;;;20.80;72.20;;;;;;4980548;28;20062;-71
2023/08/06 10:55:24;;;;;;;4.55;2.38;;;20.90;72.60;;;;;;4981148;28;20498;-69
2023/08/06 10:57:50;;;;;;;9.23;2.80;;;20.80;72.40;;;;;;4981566;28;20121;-69
2023/08/06 11:00:16;;;;;;;10.77;2.83;;;20.90;72.80;;;;;;4978901;28;20122;-71
2023/08/06 11:02:41;;;;;;;8.90;3.65;;;20.90;72.70;;;;;;4975412;28;20098;-70
2023/08/06 11:05:08;;;;;;;5.60;2.13;;;20.90;73.20;;;;;;4975910;28;20469;-70
2023/08/06 11:07:38;;;;;;;3.95;2.00;;;20.90;73.20;;;;;;4979739;28;20066;-70
2023/08/06 11:10:06;;;;;;;2.45;2.25;;;20.90;73.80;;;;;;4982413;28;20042;-70
2023/08/06 11:12:32;;;;;;;3.22;1.73;;;20.90;73.40;;;;;;4983302;28;20042;-68
2023/08/06 11:14:58;;;;;;;4.38;2.10;;;20.90;72.60;;;;;;4983999;28;20093;-69
2023/08/06 11:17:24;;;;;;;3.08;1.83;;;20.90;72.60;;;;;;4980013;28;20035;-68
2023/08/06 11:19:50;;;;;;;2.03;1.85;;;20.90;72.80;;;;;;4984040;28;20034;-69
2023/08/06 11:22:17;;;;;;;3.60;2.47;;;20.90;72.60;;;;;;4974804;28;20534;-68
2023/08/06 11:24:43;;;;;;;4.03;3.03;;;20.80;72.30;;;;;;4980860;28;20070;-69
2023/08/06 11:27:13;;;;;;;2.53;2.20;;;20.80;72.10;;;;;;4982782;28;20303;-69
2023/08/06 11:29:38;;;;;;;4.05;2.17;;;20.80;71.90;;;;;;4979212;28;20070;-70
2023/08/06 11:32:05;;;;;;;3.55;2.10;;;20.90;71.60;;;;;;4978527;28;20031;-70
2023/08/06 11:34:31;;;;;;;2.78;2.40;;;20.90;71.50;;;;;;4977084;28;20042;-70
2023/08/06 11:36:57;;;;;;;2.72;2.28;;;20.90;71.40;;;;;;4984598;28;20497;-70
2023/08/06 11:39:23;;;;;;;2.28;2.00;;;20.90;71.50;;;;;;4980015;28;20456;-71
2023/08/06 11:41:48;;;;;;;2.85;2.30;;;20.90;71.40;;;;;;4984094;28;20130;-69
2023/08/06 11:44:14;;;;;;;2.67;1.88;;;20.90;71.40;;;;;;4983055;28;20045;-70
2023/08/06 11:46:55;;;;;;;2.85;2.22;;;20.90;71.40;;;;;;4983189;28;20092;-70
2023/08/06 11:49:37;;;;;;;2.58;2.35;;;21.00;71.30;;;;;;4976883;28;20104;-70
2023/08/06 11:52:23;;;;;;;3.70;2.38;;;21.00;71.60;;;;;;4975342;28;20062;-69
2023/08/06 11:55:07;;;;;;;;;;;21.00;71.90;;;;;;4977856;28;20117;-68
2023/08/06 11:57:35;;;;;;;4.78;2.13;;;21.00;71.80;;;;;;4979934;28;20388;-69
2023/08/06 12:00:05;;;;;;;3.47;2.42;;;21.10;72.30;;;;;;4978314;28;20128;-68
2023/08/06 12:02:34;;;;;;;4.35;2.50;;;21.00;73.40;;;;;;4967066;28;20026;-69
2023/08/06 12:05:07;;;;;;;2.72;2.47;;;21.10;73.30;;;;;;4988892;28;20049;-68
2023/08/06 12:07:36;;;;;;;3.58;2.53;;;21.10;72.90;;;;;;4980028;28;20038;-68
2023/08/06 12:10:01;;;;;;;4.43;2.63;;;21.10;72.60;;;;;;4979306;28;20090;-68
2023/08/06 12:12:28;;;;;;;6.97;2.60;;;21.10;72.70;;;;;;4981429;28;20627;-67
2023/08/06 12:14:55;;;;;;;10.88;3.78;;;21.10;72.70;;;;;;4982364;28;20438;-66
2023/08/06 12:17:20;;;;;;;10.48;2.78;;;21.10;71.70;;;;;;4976672;28;20121;-66
2023/08/06 12:19:47;;;;;;;8.20;2.38;;;21.10;72.00;;;;;;4973975;28;20109;-66
2023/08/06 12:22:13;;;;;;;3.55;2.08;;;21.10;71.60;;;;;;4977094;28;20199;-66
2023/08/06 12:24:40;;;;;;;4.60;2.00;;;21.00;70.30;;;;;;4974878;28;20125;-66
2023/08/06 12:27:06;;;;;;;5.20;2.10;;;21.00;70.60;;;;;;4976932;28;20615;-66
2023/08/06 12:29:31;;;;;;;4.25;2.17;;;21.00;70.80;;;;;;4974372;28;20031;-67
2023/08/06 12:31:57;;;;;;;5.32;2.10;;;21.00;70.70;;;;;;4979906;28;20038;-68
2023/08/06 12:34:23;;;;;;;3.42;2.40;;;21.00;70.40;;;;;;4980116;28;20048;-69
2023/08/06 12:36:48;;;;;;;2.35;1.73;;;21.00;69.30;;;;;;4980559;28;20390;-68
2023/08/06 12:39:14;;;;;;;2.05;1.83;;;21.00;69.70;;;;;;4980169;28;20038;-67
2023/08/06 12:41:39;;;;;;;3.40;1.95;;;20.90;69.90;;;;;;4976769;28;20121;-68
2023/08/06 12:44:05;;;;;;;2.05;1.88;;;20.90;69.50;;;;;;4981272;28;20026;-68